Time;durP1;ratioP1;P1;durP2;ratioP2;P2;SDS_P1;SDS_P2;PMS_P1;PMS_P2;Temp;Humidity;BMP_temperature;BMP_pressure;BME280_temperature;BME280_humidity;BME280_pressure;Samples;Min_cycle;Max_cycle;Signal;HPM_P1;HPM_P2
2022/12/06 00:01:24;;;;;;;0.60;0.60;;;;;;;0.20;74.39;100987.78;4965854;29;20475;-75
2022/12/06 00:03:54;;;;;;;0.60;0.60;;;;;;;0.17;74.51;100985.97;4967360;28;20331;-74
2022/12/06 00:06:22;;;;;;;0.52;0.52;;;;;;;0.21;74.48;100980.19;4966941;28;20027;-75
2022/12/06 00:08:49;;;;;;;0.50;0.50;;;;;;;0.23;74.37;100977.69;4966957;28;20023;-75
2022/12/06 00:11:20;;;;;;;0.55;0.55;;;;;;;0.19;74.60;100968.16;4965945;29;20039;-75
2022/12/06 00:13:46;;;;;;;0.68;0.68;;;;;;;0.11;74.59;100963.56;4967268;28;20062;-76
2022/12/06 00:16:14;;;;;;;2.15;2.05;;;;;;;0.17;74.61;100959.56;4967071;28;20031;-76
2022/12/06 00:18:42;;;;;;;0.60;0.60;;;;;;;0.18;74.44;100951.06;4966971;28;20027;-76
2022/12/06 00:21:11;;;;;;;0.60;0.60;;;;;;;0.17;74.52;100968.09;4966878;28;20031;-76
2022/12/06 00:23:42;;;;;;;0.60;0.60;;;;;;;0.19;74.53;100963.91;4966947;28;20035;-75
2022/12/06 00:26:08;;;;;;;0.60;0.60;;;;;;;0.19;74.55;100960.50;4966736;28;20023;-75
2022/12/06 00:28:35;;;;;;;0.60;0.60;;;;;;;0.19;74.54;100955.41;4966845;28;20023;-76
2022/12/06 00:31:03;;;;;;;0.57;0.57;;;;;;;0.19;74.48;100958.78;4966700;28;20026;-75
2022/12/06 00:33:29;;;;;;;0.50;0.50;;;;;;;0.14;74.57;100950.09;4965303;29;20046;-76
2022/12/06 00:36:19;;;;;;;0.50;0.50;;;;;;;0.16;74.54;100948.44;4965491;29;20023;-75
2022/12/06 00:38:45;;;;;;;0.50;0.50;;;;;;;0.10;74.53;100948.19;4964862;29;20049;-75
2022/12/06 00:41:16;;;;;;;0.55;0.55;;;;;;;0.17;74.52;100949.34;4966671;28;20023;-75
2022/12/06 00:43:42;;;;;;;1.10;1.10;;;;;;;0.14;74.54;100939.00;4966842;28;20035;-75
2022/12/06 00:46:11;;;;;;;0.57;0.57;;;;;;;0.15;74.72;100940.72;4966779;28;20547;-75
2022/12/06 00:48:37;;;;;;;0.52;0.52;;;;;;;0.07;74.55;100925.09;4966446;28;20026;-75
2022/12/06 00:51:02;;;;;;;0.77;0.77;;;;;;;0.17;74.59;100940.00;4966560;29;20094;-75
2022/12/06 00:53:28;;;;;;;0.60;0.60;;;;;;;0.17;74.56;100934.91;4966696;28;20031;-76
2022/12/06 00:55:54;;;;;;;0.52;0.52;;;;;;;0.17;74.80;100934.91;4966599;28;20023;-74
2022/12/06 00:58:20;;;;;;;0.60;0.60;;;;;;;0.19;74.63;100933.25;4966777;28;20047;-75
2022/12/06 01:00:46;;;;;;;0.60;0.60;;;;;;;0.15;74.90;100917.75;4966299;28;20032;-76
2022/12/06 01:03:11;;;;;;;0.57;0.57;;;;;;;0.23;74.82;100921.50;4966589;28;20034;-75
2022/12/06 01:05:48;;;;;;;0.60;0.60;;;;;;;0.23;74.68;100907.06;4966313;28;20058;-75
2022/12/06 01:08:14;;;;;;;0.60;0.60;;;;;;;0.33;74.44;100915.09;4968364;29;20474;-75
2022/12/06 01:10:40;;;;;;;0.50;0.50;;;;;;;0.30;74.55;100908.19;4970335;28;20031;-75
2022/12/06 01:13:07;;;;;;;0.50;0.50;;;;;;;0.34;74.48;100907.50;4969061;29;20138;-75
2022/12/06 01:15:35;;;;;;;0.52;0.52;;;;;;;0.34;74.59;100893.84;4968911;29;20042;-75
2022/12/06 01:18:01;;;;;;;0.60;0.60;;;;;;;0.40;74.67;100894.09;4970340;28;20031;-76
2022/12/06 01:20:27;;;;;;;0.60;0.60;;;;;;;0.41;74.60;100893.31;4969847;28;20024;-76
2022/12/06 01:22:52;;;;;;;0.60;0.60;;;;;;;0.44;74.36;100896.00;4968945;29;20509;-75
2022/12/06 01:25:18;;;;;;;0.70;0.70;;;;;;;0.40;74.34;100890.69;4969986;28;20031;-76
2022/12/06 01:27:43;;;;;;;0.60;0.60;;;;;;;0.39;74.26;100888.94;4970041;28;20386;-76
2022/12/06 01:30:09;;;;;;;0.50;0.50;;;;;;;0.42;74.33;100889.06;4968831;29;20023;-76
2022/12/06 01:32:34;;;;;;;0.50;0.50;;;;;;;0.41;74.32;100885.66;4968372;29;20027;-76
2022/12/06 01:34:59;;;;;;;0.50;0.50;;;;;;;0.41;74.48;100884.78;4968348;29;20073;-76
2022/12/06 01:37:25;;;;;;;0.60;0.60;;;;;;;0.43;74.30;100880.59;4968429;29;20094;-77
2022/12/06 01:39:50;;;;;;;0.60;0.60;;;;;;;0.43;74.18;100886.56;4969349;29;20034;-75
2022/12/06 01:42:16;;;;;;;0.60;0.60;;;;;;;0.41;74.14;100883.09;4968144;29;20027;-75
2022/12/06 01:44:45;;;;;;;0.60;0.60;;;;;;;0.41;74.17;100872.00;4969893;28;20035;-75
2022/12/06 01:47:19;;;;;;;0.57;0.57;;;;;;;0.44;74.23;100877.22;4969734;28;20052;-75
2022/12/06 01:49:51;;;;;;;0.60;0.60;;;;;;;0.46;74.07;100881.56;4968016;29;20027;-76
2022/12/06 01:52:18;;;;;;;0.50;0.50;;;;;;;0.44;74.08;100878.13;4969597;28;20058;-75
2022/12/06 01:54:44;;;;;;;0.60;0.60;;;;;;;0.42;74.00;100860.94;4969349;28;20070;-76
2022/12/06 01:57:12;;;;;;;1.13;1.13;;;;;;;0.45;74.07;100874.72;4969359;28;20479;-75
2022/12/06 01:59:38;;;;;;;0.60;0.60;;;;;;;0.44;73.98;100867.00;4969184;28;20038;-75
2022/12/06 02:02:04;;;;;;;0.50;0.50;;;;;;;0.40;73.99;100865.16;4969413;28;20027;-76
2022/12/06 02:04:30;;;;;;;0.60;0.60;;;;;;;0.36;73.99;100857.38;4967673;29;20134;-75
2022/12/06 02:06:57;;;;;;;0.55;0.55;;;;;;;0.39;74.17;100858.28;4969252;28;20031;-76
2022/12/06 02:09:25;;;;;;;0.50;0.50;;;;;;;0.38;74.13;100856.53;4969153;28;20033;-77
2022/12/06 02:11:50;;;;;;;0.52;0.52;;;;;;;0.36;74.11;100848.81;4969153;28;20023;-76
2022/12/06 02:14:21;;;;;;;0.60;0.60;;;;;;;0.38;73.95;100861.66;4969030;29;20087;-76
2022/12/06 02:17:14;;;;;;;0.60;0.60;;;;;;;0.35;73.82;100857.31;4969111;28;20128;-75
2022/12/06 02:20:00;;;;;;;0.50;0.50;;;;;;;0.33;73.79;100853.81;4967584;29;20110;-75
2022/12/06 02:22:57;;;;;;;0.60;0.60;;;;;;;0.28;73.90;100853.63;4968668;29;20023;-76
2022/12/06 02:25:57;;;;;;;0.60;0.60;;;;;;;0.26;73.68;100845.00;4968870;28;20526;-77
2022/12/06 02:29:01;;;;;;;0.60;0.60;;;;;;;0.21;73.80;100834.59;4967687;29;20031;-75
2022/12/06 02:31:38;;;;;;;0.50;0.50;;;;;;;0.12;73.82;100826.56;4962786;28;20035;-76
2022/12/06 02:34:16;;;;;;;0.52;0.52;;;;;;;0.11;73.63;100837.59;4967223;29;20019;-76
2022/12/06 02:36:54;;;;;;;0.60;0.60;;;;;;;0.08;73.53;100837.47;4968616;29;20030;-76
2022/12/06 02:39:38;;;;;;;0.50;0.50;;;;;;;0.01;73.45;100836.34;4968725;28;20031;-75
2022/12/06 02:42:10;;;;;;;0.40;0.40;;;;;;;-0.14;73.31;100821.25;4968631;28;20031;-75
2022/12/06 02:44:39;;;;;;;0.70;0.70;;;;;;;-0.17;73.28;100827.09;4968601;28;20027;-75
2022/12/06 02:47:10;;;;;;;0.60;0.60;;;;;;;-0.20;73.33;100836.31;4968559;28;20023;-75
2022/12/06 02:49:43;;;;;;;0.57;0.57;;;;;;;-0.34;73.37;100828.06;4968011;28;20027;-76
2022/12/06 02:52:10;;;;;;;0.50;0.50;;;;;;;-0.36;73.43;100834.75;4968532;28;20023;-75
2022/12/06 02:54:36;;;;;;;0.50;0.50;;;;;;;-0.47;73.27;100826.66;4968099;28;20051;-77
2022/12/06 02:57:01;;;;;;;0.50;0.50;;;;;;;-0.50;73.51;100835.06;4967009;29;20038;-77
2022/12/06 02:59:27;;;;;;;0.50;0.50;;;;;;;-0.65;73.47;100812.28;4968332;29;20062;-76
2022/12/06 03:01:57;;;;;;;0.50;0.50;;;;;;;-0.65;73.80;100825.91;4968073;28;20023;-77
2022/12/06 03:04:46;;;;;;;0.60;0.60;;;;;;;-0.77;73.86;100827.94;4968155;28;20031;-77
2022/12/06 03:07:25;;;;;;;0.50;0.50;;;;;;;-0.88;74.00;100814.69;4968294;28;20055;-75
2022/12/06 03:10:08;;;;;;;0.60;0.60;;;;;;;-0.86;73.88;100814.78;4966569;29;20047;-75
2022/12/06 03:12:54;;;;;;;0.50;0.50;;;;;;;-0.92;73.80;100810.25;4967865;28;20046;-74
2022/12/06 03:15:37;;;;;;;0.60;0.60;;;;;;;-1.02;73.96;100816.59;4968207;28;20136;-75
2022/12/06 03:18:22;;;;;;;1.05;1.05;;;;;;;-1.06;73.84;100815.59;4968106;28;20027;-75
2022/12/06 03:21:16;;;;;;;0.52;0.52;;;;;;;-1.19;73.86;100809.06;4967752;28;20031;-76
2022/12/06 03:23:45;;;;;;;0.50;0.50;;;;;;;-1.26;73.83;100813.00;4967187;29;20046;-78
2022/12/06 03:26:17;;;;;;;0.80;0.80;;;;;;;-1.24;73.81;100815.63;4966381;29;20074;-77
2022/12/06 03:28:45;;;;;;;0.70;0.70;;;;;;;-1.39;73.91;100806.44;4967617;28;20042;-75
2022/12/06 03:31:13;;;;;;;0.60;0.60;;;;;;;-1.42;73.99;100813.09;4967187;28;20451;-76
2022/12/06 03:33:53;;;;;;;0.60;0.60;;;;;;;-1.45;74.17;100811.25;4967513;28;20077;-76
2022/12/06 03:36:20;;;;;;;0.60;0.60;;;;;;;-1.48;74.25;100811.13;4966070;29;20023;-75
2022/12/06 03:38:51;;;;;;;0.60;0.60;;;;;;;-1.52;74.18;100807.53;4967569;28;20079;-76
2022/12/06 03:41:20;;;;;;;0.73;0.73;;;;;;;-1.64;74.14;100802.75;4967208;28;20031;-75
2022/12/06 03:43:45;;;;;;;0.50;0.50;;;;;;;-1.66;74.46;100801.81;4966086;29;20038;-76
2022/12/06 03:46:14;;;;;;;0.60;0.60;;;;;;;-1.69;74.71;100803.34;4967646;28;20031;-76
2022/12/06 03:48:45;;;;;;;0.60;0.60;;;;;;;-1.77;74.92;100798.75;4967130;28;20042;-76
2022/12/06 03:51:16;;;;;;;0.60;0.60;;;;;;;-1.75;75.18;100803.91;4966056;29;20047;-77
2022/12/06 03:53:51;;;;;;;0.80;0.80;;;;;;;-1.74;75.13;100798.00;4967256;28;20047;-75
2022/12/06 03:56:16;;;;;;;0.52;0.52;;;;;;;-1.76;75.03;100805.56;4967379;28;20019;-76
2022/12/06 03:58:42;;;;;;;0.82;0.82;;;;;;;-1.84;75.04;100794.16;4967240;29;20058;-76
2022/12/06 04:01:07;;;;;;;0.60;0.60;;;;;;;-1.80;74.88;100803.69;4966963;29;20431;-76
2022/12/06 04:03:32;;;;;;;0.60;0.60;;;;;;;-1.85;75.08;100800.03;4967064;28;20532;-75
2022/12/06 04:06:01;;;;;;;0.50;0.50;;;;;;;-1.91;75.10;100787.00;4967166;29;20039;-75
2022/12/06 04:08:26;;;;;;;0.50;0.50;;;;;;;-1.88;75.01;100802.44;4967070;28;20031;-75
2022/12/06 04:10:52;;;;;;;0.60;0.60;;;;;;;-1.95;75.18;100782.59;4965599;29;20031;-75
2022/12/06 04:13:17;;;;;;;0.60;0.60;;;;;;;-2.01;75.27;100781.47;4967096;29;20038;-75
2022/12/06 04:15:42;;;;;;;0.50;0.50;;;;;;;-1.98;75.61;100784.97;4967098;28;20019;-75
2022/12/06 04:18:12;;;;;;;0.60;0.60;;;;;;;-2.00;75.29;100785.75;4967195;28;20029;-74
2022/12/06 04:23:31;;;;;;;0.80;0.80;;;;;;;-2.04;75.42;100786.41;4967078;29;20549;-75
2022/12/06 04:25:56;;;;;;;0.70;0.70;;;;;;;-2.11;75.59;100784.38;4966834;28;20087;-75
2022/12/06 04:39:19;;;;;;;0.50;0.50;;;;;;;-2.19;76.33;100783.97;4967036;29;20079;-75
2022/12/06 04:44:28;;;;;;;0.60;0.60;;;;;;;-2.22;75.90;100777.88;4966835;29;20038;-74
2022/12/06 04:46:54;;;;;;;0.60;0.60;;;;;;;-2.25;75.87;100773.50;4966788;28;20023;-76
2022/12/06 04:49:19;;;;;;;0.60;0.60;;;;;;;-2.30;75.84;100763.09;4966462;28;20027;-74
2022/12/06 04:51:44;;;;;;;0.60;0.60;;;;;;;-2.27;76.06;100777.66;4966674;28;20027;-74
2022/12/06 04:54:10;;;;;;;0.60;0.60;;;;;;;-2.26;76.01;100775.19;4966444;28;20106;-74
2022/12/06 04:56:35;;;;;;;0.63;0.63;;;;;;;-2.24;76.12;100773.56;4966751;28;20144;-74
2022/12/06 04:59:02;;;;;;;0.60;0.60;;;;;;;-2.24;76.19;100768.47;4966658;28;20031;-74
2022/12/06 05:01:27;;;;;;;0.60;0.60;;;;;;;-2.31;76.28;100758.81;4966627;28;20043;-74
2022/12/06 05:03:53;;;;;;;0.60;0.60;;;;;;;-2.28;76.33;100766.59;4966402;28;20023;-76
2022/12/06 05:06:18;;;;;;;0.60;0.60;;;;;;;-2.30;76.59;100770.72;4966690;28;20030;-67
2022/12/06 05:08:43;;;;;;;0.60;0.60;;;;;;;-2.35;76.73;100759.47;4966643;29;20027;-73
2022/12/06 05:11:09;;;;;;;0.60;0.60;;;;;;;-2.38;76.83;100756.78;4966502;29;20031;-76
2022/12/06 05:13:34;;;;;;;0.60;0.60;;;;;;;-2.37;76.82;100761.94;4965556;29;20087;-76
2022/12/06 05:16:02;;;;;;;0.60;0.60;;;;;;;-2.50;76.88;100744.31;4966675;28;20020;-76
2022/12/06 05:18:27;;;;;;;0.80;0.80;;;;;;;-2.58;77.09;100751.53;4966371;28;20031;-74
2022/12/06 05:21:05;;;;;;;0.60;0.60;;;;;;;-2.69;77.36;100745.91;4964923;29;20032;-76
2022/12/06 05:23:35;;;;;;;0.60;0.60;;;;;;;-2.65;77.42;100752.03;4966452;29;20033;-74
2022/12/06 05:26:03;;;;;;;0.60;0.60;;;;;;;-2.65;77.47;100757.13;4966559;29;20037;-74
2022/12/06 05:28:29;;;;;;;0.60;0.60;;;;;;;-2.61;77.42;100756.47;4966709;28;20031;-74
2022/12/06 05:30:55;;;;;;;0.60;0.60;;;;;;;-2.56;77.53;100756.72;4965029;29;20380;-73
2022/12/06 05:33:22;;;;;;;0.70;0.70;;;;;;;-2.55;77.49;100744.06;4966354;28;20019;-73
2022/12/06 05:35:48;;;;;;;0.65;0.65;;;;;;;-2.53;77.38;100744.16;4966099;28;20087;-73
2022/12/06 05:38:14;;;;;;;0.60;0.60;;;;;;;-2.51;77.34;100747.66;4966122;28;20050;-72
2022/12/06 05:40:41;;;;;;;0.50;0.50;;;;;;;-2.59;77.58;100734.56;4965633;28;20031;-74
2022/12/06 05:43:06;;;;;;;0.60;0.60;;;;;;;-2.56;77.57;100737.25;4966333;28;20035;-73
2022/12/06 05:45:31;;;;;;;0.60;0.60;;;;;;;-2.62;77.66;100727.63;4966281;29;20042;-73
2022/12/06 05:47:57;;;;;;;0.60;0.60;;;;;;;-2.59;77.81;100742.19;4965183;29;20030;-75
2022/12/06 05:50:22;;;;;;;0.60;0.60;;;;;;;-2.61;78.01;100733.59;4965956;28;20031;-74
2022/12/06 05:52:52;;;;;;;0.60;0.60;;;;;;;-2.63;78.08;100730.09;4967131;28;20058;-72
2022/12/06 05:55:18;;;;;;;0.50;0.50;;;;;;;-2.69;78.03;100729.78;4969639;28;20048;-73
2022/12/06 05:57:43;;;;;;;0.73;0.73;;;;;;;-2.70;78.22;100731.44;4968491;29;20034;-73
2022/12/06 06:00:09;;;;;;;0.60;0.60;;;;;;;-2.76;78.33;100719.31;4969638;28;20028;-74
2022/12/06 06:02:34;;;;;;;0.60;0.60;;;;;;;-2.59;78.33;100738.75;4968213;29;20038;-73
2022/12/06 06:04:59;;;;;;;0.50;0.50;;;;;;;-2.64;78.06;100738.53;4969318;28;20031;-73
2022/12/06 06:07:25;;;;;;;0.60;0.60;;;;;;;-2.69;78.19;100732.31;4968268;29;20023;-74
2022/12/06 06:09:50;;;;;;;0.52;0.52;;;;;;;-2.62;78.28;100732.72;4969248;29;20426;-73
2022/12/06 06:12:15;;;;;;;0.60;0.60;;;;;;;-2.65;78.25;100719.00;4969423;29;20054;-72
2022/12/06 06:14:41;;;;;;;2.55;2.45;;;;;;;-2.59;78.18;100721.84;4968137;29;20027;-72
2022/12/06 06:17:06;;;;;;;0.60;0.60;;;;;;;-2.57;78.42;100722.78;4967959;29;20456;-73
2022/12/06 06:19:31;;;;;;;0.60;0.60;;;;;;;-2.60;78.14;100712.44;4968862;29;20045;-74
2022/12/06 06:21:57;;;;;;;0.60;0.60;;;;;;;-2.53;78.21;100729.78;4969106;28;20034;-73
2022/12/06 06:24:22;;;;;;;0.60;0.60;;;;;;;-2.52;78.24;100728.09;4969070;28;20062;-73
2022/12/06 06:26:48;;;;;;;0.60;0.60;;;;;;;-2.55;78.16;100708.47;4969082;28;20036;-74
2022/12/06 06:29:13;;;;;;;0.60;0.60;;;;;;;-2.56;78.47;100711.81;4967758;29;20026;-74
2022/12/06 06:31:38;;;;;;;0.60;0.60;;;;;;;-2.56;78.64;100711.81;4968900;28;20059;-72
2022/12/06 06:34:04;;;;;;;0.60;0.60;;;;;;;-2.62;78.80;100706.44;4968802;28;20027;-73
2022/12/06 06:36:29;;;;;;;0.63;0.63;;;;;;;-2.62;78.46;100701.34;4968911;28;20023;-73
2022/12/06 06:38:54;;;;;;;0.60;0.60;;;;;;;-2.71;78.55;100694.13;4968799;28;20043;-73
2022/12/06 06:41:20;;;;;;;0.60;0.60;;;;;;;-2.60;78.60;100709.91;4967466;29;20027;-74
2022/12/06 06:43:45;;;;;;;0.50;0.50;;;;;;;-2.62;78.64;100704.75;4967427;29;20027;-74
2022/12/06 06:46:10;;;;;;;0.60;0.60;;;;;;;-2.58;78.90;100708.31;4968786;29;20150;-73
2022/12/06 06:48:38;;;;;;;0.60;0.60;;;;;;;-2.52;78.78;100707.75;4967096;29;20115;-73
2022/12/06 06:51:09;;;;;;;0.60;0.60;;;;;;;-2.47;78.55;100707.97;4968565;28;20031;-73
2022/12/06 06:53:36;;;;;;;0.63;0.63;;;;;;;-2.47;78.50;100690.19;4969093;28;20129;-74
2022/12/06 06:56:01;;;;;;;0.60;0.60;;;;;;;-2.43;78.56;100694.63;4967276;29;20094;-73
2022/12/06 06:58:27;;;;;;;0.70;0.70;;;;;;;-2.40;78.51;100695.66;4968607;29;20035;-72
2022/12/06 07:00:54;;;;;;;0.60;0.60;;;;;;;-2.38;78.28;100693.19;4968638;28;20425;-73
2022/12/06 07:03:20;;;;;;;0.50;0.50;;;;;;;-2.40;78.35;100692.25;4969305;28;20023;-74
2022/12/06 07:05:54;;;;;;;0.60;0.60;;;;;;;-2.36;78.40;100694.13;4967256;29;20031;-74
2022/12/06 07:08:19;;;;;;;0.50;0.50;;;;;;;-2.32;78.17;100695.16;4968883;28;20023;-74
2022/12/06 07:10:48;;;;;;;0.60;0.60;;;;;;;-2.39;78.22;100691.44;4968309;29;20118;-73
2022/12/06 07:13:17;;;;;;;0.60;0.60;;;;;;;-2.41;78.44;100677.78;4967108;29;20027;-73
2022/12/06 07:15:43;;;;;;;0.70;0.70;;;;;;;-2.36;78.59;100676.31;4968513;28;20023;-72
2022/12/06 07:18:08;;;;;;;0.60;0.60;;;;;;;-2.30;78.33;100684.25;4968320;28;20046;-73
2022/12/06 07:20:34;;;;;;;0.60;0.60;;;;;;;-2.32;78.60;100673.16;4968034;28;20537;-73
2022/12/06 07:22:59;;;;;;;0.60;0.60;;;;;;;-2.23;78.65;100680.34;4968364;28;20039;-74
2022/12/06 07:25:25;;;;;;;0.63;0.63;;;;;;;-2.22;78.67;100671.91;4968259;28;20384;-73
2022/12/06 07:27:50;;;;;;;0.50;0.50;;;;;;;-2.14;78.59;100673.16;4969571;28;20038;-72
2022/12/06 07:30:16;;;;;;;0.60;0.60;;;;;;;-2.05;78.41;100677.81;4969757;29;20027;-72
2022/12/06 07:32:41;;;;;;;0.50;0.50;;;;;;;-2.01;78.37;100672.06;4971285;29;20034;-72
2022/12/06 07:35:07;;;;;;;0.57;0.57;;;;;;;-2.03;78.22;100672.81;4970169;29;20052;-73
2022/12/06 07:37:32;;;;;;;0.60;0.60;;;;;;;-2.02;78.25;100675.41;4970469;29;20066;-72
2022/12/06 07:39:58;;;;;;;0.60;0.60;;;;;;;-2.01;78.22;100661.00;4970880;28;20023;-71
2022/12/06 07:45:09;;;;;;;0.50;0.50;;;;;;;-1.90;78.27;100669.16;4969475;29;20046;-72
2022/12/06 07:47:36;;;;;;;0.60;0.60;;;;;;;-1.93;78.14;100664.78;4966741;29;20023;-73
2022/12/06 07:50:04;;;;;;;0.60;0.60;;;;;;;-1.94;78.12;100668.13;4967431;28;20062;-73
2022/12/06 07:52:34;;;;;;;0.60;0.60;;;;;;;-1.94;78.23;100669.81;4967501;28;20023;-72
2022/12/06 07:54:59;;;;;;;0.50;0.50;;;;;;;-1.92;78.09;100671.63;4967415;28;20055;-73
2022/12/06 07:57:25;;;;;;;2.78;2.58;;;;;;;-1.95;78.19;100660.44;4967637;28;20023;-72
2022/12/06 07:59:50;;;;;;;0.60;0.60;;;;;;;-1.92;77.96;100668.22;4967712;28;20035;-73
2022/12/06 08:02:19;;;;;;;0.60;0.60;;;;;;;-2.01;78.03;100671.19;4966350;29;20023;-71
2022/12/06 08:04:45;;;;;;;0.65;0.65;;;;;;;-2.06;78.09;100670.97;4965807;29;20034;-73
2022/12/06 08:07:10;;;;;;;0.55;0.55;;;;;;;-2.10;78.20;100664.00;4965905;29;20019;-73
2022/12/06 08:09:35;;;;;;;5.38;2.97;;;;;;;-2.05;78.33;100669.31;4967362;28;20023;-74
2022/12/06 08:12:01;;;;;;;0.50;0.50;;;;;;;-2.15;78.10;100661.22;4967167;29;20442;-73
2022/12/06 08:14:26;;;;;;;0.50;0.50;;;;;;;-2.27;78.32;100655.56;4967202;29;20023;-74
2022/12/06 08:16:52;;;;;;;0.60;0.60;;;;;;;-2.21;78.46;100665.16;4965547;28;20031;-73
2022/12/06 08:19:17;;;;;;;0.60;0.60;;;;;;;-2.27;78.48;100663.19;4965751;29;20027;-74
2022/12/06 08:21:42;;;;;;;1.85;1.60;;;;;;;-2.20;78.49;100672.84;4967075;28;20038;-73
2022/12/06 08:24:08;;;;;;;0.60;0.60;;;;;;;-2.25;78.61;100657.38;4967255;28;20034;-74
2022/12/06 08:26:35;;;;;;;0.80;0.80;;;;;;;-2.21;78.54;100668.56;4965665;29;20023;-73
2022/12/06 08:29:01;;;;;;;0.60;0.60;;;;;;;-2.18;78.57;100658.53;4967162;28;20027;-74
2022/12/06 08:31:26;;;;;;;0.70;0.70;;;;;;;-2.14;78.93;100660.41;4966930;28;20415;-75
2022/12/06 08:33:52;;;;;;;0.50;0.50;;;;;;;-2.05;78.89;100654.91;4965456;29;20034;-74
2022/12/06 08:36:20;;;;;;;0.60;0.60;;;;;;;-2.02;78.77;100656.72;4965747;29;20120;-73
2022/12/06 08:38:47;;;;;;;4.25;3.08;;;;;;;-2.02;78.43;100662.69;4965630;29;20038;-74
2022/12/06 08:43:58;;;;;;;0.50;0.50;;;;;;;-2.19;78.49;100659.31;4966871;29;20053;-73
2022/12/06 08:46:24;;;;;;;0.60;0.60;;;;;;;-2.19;78.67;100655.94;4965323;29;20020;-73
2022/12/06 08:48:50;;;;;;;0.60;0.60;;;;;;;-2.25;78.66;100644.66;4966658;28;20031;-74
2022/12/06 08:51:16;;;;;;;0.60;0.60;;;;;;;-2.20;78.62;100654.16;4966695;28;20031;-73
2022/12/06 08:53:41;;;;;;;2.38;2.28;;;;;;;-2.25;78.83;100653.94;4966640;28;20034;-75
2022/12/06 08:56:07;;;;;;;0.60;0.60;;;;;;;-2.30;78.68;100642.69;4966769;28;20435;-74
2022/12/06 08:58:33;;;;;;;0.60;0.60;;;;;;;-2.25;78.45;100648.84;4967029;28;20047;-73
2022/12/06 09:00:58;;;;;;;0.60;0.60;;;;;;;-2.44;78.80;100622.56;4966736;28;20027;-73
2022/12/06 09:03:24;;;;;;;0.60;0.60;;;;;;;-2.29;78.80;100645.31;4966693;28;20116;-73
2022/12/06 09:05:49;;;;;;;0.60;0.60;;;;;;;-2.28;78.78;100647.06;4966387;28;20078;-74
2022/12/06 09:08:14;;;;;;;0.70;0.70;;;;;;;-2.36;78.92;100633.09;4966727;28;20491;-74
2022/12/06 09:10:41;;;;;;;0.60;0.60;;;;;;;-2.31;78.84;100649.44;4966545;28;20027;-73
2022/12/06 09:13:07;;;;;;;1.40;1.40;;;;;;;-2.26;78.89;100649.66;4966675;28;20031;-75
2022/12/06 09:15:32;;;;;;;0.60;0.60;;;;;;;-2.22;78.63;100653.25;4965400;29;20028;-74
2022/12/06 09:17:58;;;;;;;0.60;0.60;;;;;;;-2.32;78.79;100649.38;4966635;28;20028;-73
2022/12/06 09:20:23;;;;;;;0.60;0.60;;;;;;;-2.28;78.79;100653.81;4966241;29;20051;-74
2022/12/06 09:22:48;;;;;;;0.50;0.50;;;;;;;-2.30;78.82;100648.63;4966626;28;20518;-73
2022/12/06 09:25:14;;;;;;;0.60;0.60;;;;;;;-2.27;78.89;100645.41;4966456;28;20035;-73
2022/12/06 09:27:39;;;;;;;0.60;0.60;;;;;;;-2.25;78.95;100651.41;4967278;28;20038;-75
2022/12/06 09:30:06;;;;;;;0.63;0.63;;;;;;;-2.34;78.93;100631.50;4970352;29;20031;-74
2022/12/06 09:32:31;;;;;;;0.60;0.60;;;;;;;-2.22;78.84;100641.38;4970003;28;20035;-73
2022/12/06 09:34:56;;;;;;;0.60;0.60;;;;;;;-2.22;79.00;100638.81;4969880;29;20042;-74
2022/12/06 09:37:22;;;;;;;0.60;0.60;;;;;;;-2.23;78.97;100634.56;4970219;28;20031;-73
2022/12/06 09:39:54;;;;;;;0.60;0.60;;;;;;;-2.20;79.02;100638.91;4970023;28;20035;-74
2022/12/06 09:42:41;;;;;;;0.60;0.60;;;;;;;-2.18;79.09;100637.31;4970119;28;20111;-74
2022/12/06 09:45:27;;;;;;;0.50;0.50;;;;;;;-2.14;79.25;100623.97;4968748;29;20058;-74
2022/12/06 09:47:56;;;;;;;3.65;3.55;;;;;;;-2.10;79.00;100623.28;4969636;29;20039;-74
2022/12/06 09:50:25;;;;;;;0.60;0.60;;;;;;;-2.08;79.01;100628.44;4969565;29;20038;-74
2022/12/06 09:53:28;;;;;;;0.60;0.60;;;;;;;-2.07;79.21;100631.06;4968616;29;20035;-74
2022/12/06 09:56:16;;;;;;;0.60;0.60;;;;;;;-2.05;79.30;100621.84;4969358;29;20055;-73
2022/12/06 09:58:57;;;;;;;0.60;0.60;;;;;;;-1.96;79.17;100602.69;4969261;28;20030;-75
2022/12/06 10:01:34;;;;;;;0.80;0.80;;;;;;;-1.86;79.10;100607.41;4967273;29;20031;-73
2022/12/06 10:04:14;;;;;;;0.60;0.60;;;;;;;-1.87;78.71;100606.53;4967777;29;20438;-75
2022/12/06 10:06:49;;;;;;;0.50;0.50;;;;;;;-1.85;79.11;100604.06;4969072;29;20471;-74
2022/12/06 10:09:25;;;;;;;0.60;0.60;;;;;;;-1.76;79.11;100601.91;4967594;29;20035;-75
2022/12/06 10:11:57;;;;;;;0.65;0.65;;;;;;;-1.80;79.07;100597.50;4968868;28;20023;-75
2022/12/06 10:14:39;;;;;;;0.80;0.80;;;;;;;-1.70;78.77;100603.00;4968901;28;20057;-74
2022/12/06 10:17:26;;;;;;;0.50;0.50;;;;;;;-1.69;79.27;100586.94;4968860;28;20027;-74
2022/12/06 10:20:18;;;;;;;0.60;0.60;;;;;;;-1.53;79.25;100597.00;4968575;28;20027;-76
2022/12/06 10:22:54;;;;;;;;;;;;;;;-1.44;79.12;100588.91;4960383;29;20422;-75
2022/12/06 10:25:25;;;;;;;0.60;0.60;;;;;;;-1.48;78.54;100576.81;4968758;28;20047;-75
2022/12/06 10:28:07;;;;;;;0.80;0.80;;;;;;;-1.51;77.99;100585.22;4967506;29;20055;-75
2022/12/06 10:30:37;;;;;;;0.60;0.60;;;;;;;-1.62;78.27;100578.78;4968437;28;20054;-75
2022/12/06 10:33:18;;;;;;;0.60;0.60;;;;;;;-1.66;78.31;100579.44;4968571;28;20031;-75
2022/12/06 10:35:52;;;;;;;0.57;0.57;;;;;;;-1.78;78.29;100570.44;4968006;28;20035;-74
2022/12/06 10:38:28;;;;;;;0.60;0.60;;;;;;;-1.78;78.28;100562.81;4968259;28;20027;-75
2022/12/06 10:41:04;;;;;;;0.60;0.60;;;;;;;-1.84;78.03;100565.09;4967008;28;20523;-75
2022/12/06 10:43:42;;;;;;;0.60;0.60;;;;;;;-1.92;78.11;100558.78;4968633;28;20023;-74
2022/12/06 10:49:00;;;;;;;0.80;0.80;;;;;;;-1.98;78.51;100554.28;4968143;29;20035;-74
2022/12/06 10:51:40;;;;;;;0.50;0.50;;;;;;;-1.99;78.79;100555.06;4968121;28;20027;-74
2022/12/06 10:54:21;;;;;;;0.60;0.60;;;;;;;-2.02;78.36;100555.81;4968074;28;20027;-76
2022/12/06 10:56:51;;;;;;;0.60;0.60;;;;;;;-1.95;78.51;100548.47;4966693;29;20026;-74
2022/12/06 10:59:53;;;;;;;0.60;0.60;;;;;;;-1.87;78.56;100547.13;4966805;29;20031;-75
2022/12/06 11:02:37;;;;;;;0.70;0.70;;;;;;;-1.82;78.52;100527.84;4966542;29;20033;-75
2022/12/06 11:05:14;;;;;;;0.60;0.60;;;;;;;-1.91;78.37;100513.03;4967683;28;20228;-75
2022/12/06 11:07:44;;;;;;;0.70;0.70;;;;;;;-1.82;78.33;100527.84;4968012;28;20510;-75
2022/12/06 11:10:23;;;;;;;0.60;0.60;;;;;;;-1.85;78.30;100525.16;4967839;28;20440;-75
2022/12/06 11:12:56;;;;;;;0.60;0.60;;;;;;;-1.90;78.39;100516.47;4967729;28;20035;-75
2022/12/06 11:15:34;;;;;;;5.25;4.32;;;;;;;-1.90;78.35;100509.69;4966665;29;20046;-75
2022/12/06 11:18:10;;;;;;;0.60;0.60;;;;;;;-1.84;78.65;100501.47;4967732;28;20090;-75
2022/12/06 11:21:01;;;;;;;0.60;0.60;;;;;;;-1.66;78.57;100510.72;4967333;28;20024;-75
2022/12/06 11:23:36;;;;;;;0.70;0.70;;;;;;;-1.57;78.52;100506.00;4966251;29;20019;-75
2022/12/06 11:26:05;;;;;;;0.52;0.52;;;;;;;-1.52;78.44;100498.56;4967460;29;20483;-75
2022/12/06 11:28:37;;;;;;;0.60;0.60;;;;;;;-1.50;78.33;100500.34;4967661;28;20034;-75
2022/12/06 11:31:24;;;;;;;0.60;0.60;;;;;;;-1.52;78.13;100485.81;4967512;28;20034;-76
2022/12/06 11:33:49;;;;;;;0.60;0.60;;;;;;;-1.49;78.12;100485.97;4966031;29;20031;-76
2022/12/06 11:36:15;;;;;;;0.60;0.60;;;;;;;-1.43;78.19;100490.44;4967160;28;20030;-75
2022/12/06 11:38:43;;;;;;;0.68;0.68;;;;;;;-1.41;78.03;100478.63;4967560;29;20034;-75
2022/12/06 11:41:14;;;;;;;0.60;0.60;;;;;;;-1.44;78.12;100470.88;4965914;29;20039;-75
2022/12/06 11:43:40;;;;;;;0.60;0.60;;;;;;;-1.38;77.92;100478.75;4967318;28;20038;-75
2022/12/06 11:46:09;;;;;;;7.13;5.53;;;;;;;-1.42;77.79;100479.44;4965919;29;20031;-75
2022/12/06 11:48:34;;;;;;;2.53;2.42;;;;;;;-1.47;77.97;100479.22;4967236;28;20069;-74
2022/12/06 11:51:00;;;;;;;3.30;3.10;;;;;;;-1.51;77.87;100475.72;4966511;28;20019;-75
2022/12/06 11:53:32;;;;;;;0.80;0.80;;;;;;;-1.45;78.20;100480.19;4966132;29;20045;-74
2022/12/06 11:56:05;;;;;;;2.30;2.22;;;;;;;-1.45;78.02;100475.09;4967181;28;20075;-74
2022/12/06 11:58:40;;;;;;;0.60;0.60;;;;;;;-1.51;78.05;100480.81;4967306;28;20031;-75
2022/12/06 12:01:09;;;;;;;0.80;0.80;;;;;;;-1.51;77.96;100479.91;4967459;28;20039;-75
2022/12/06 12:03:38;;;;;;;0.70;0.70;;;;;;;-1.61;77.92;100463.38;4967108;28;20027;-76